Time;durP1;ratioP1;P1;durP2;ratioP2;P2;SDS_P1;SDS_P2;PMS_P1;PMS_P2;Temp;Humidity;BMP_temperature;BMP_pressure;BME280_temperature;BME280_humidity;BME280_pressure;Samples;Min_cycle;Max_cycle;Signal;HPM_P1;HPM_P2
2021/04/27 04:49:21;;;;;;;14.52;8.70;;;0.90;99.90;;;;;;6323962;22;20454;-94
2021/04/27 05:08:15;;;;;;;16.20;9.27;;;1.30;99.90;;;;;;6314086;22;20519;-94
2021/04/27 05:11:21;;;;;;;16.45;9.20;;;1.30;99.90;;;;;;6316020;22;20857;-94
2021/04/27 05:55:03;;;;;;;14.23;7.40;;;2.90;99.70;;;;;;6335934;22;20393;-94
2021/04/27 05:58:00;;;;;;;14.48;7.30;;;3.20;99.10;;;;;;6313363;22;20381;-94
2021/04/27 06:04:35;;;;;;;14.25;6.90;;;3.80;97.40;;;;;;6303088;22;20357;-94
2021/04/27 06:07:08;;;;;;;14.82;6.50;;;4.30;96.40;;;;;;6201380;23;20391;-95
2021/04/27 06:21:13;;;;;;;10.68;5.78;;;8.30;82.40;;;;;;6178767;23;20383;-95
2021/04/27 07:27:35;;;;;;;12.57;5.30;;;10.10;68.40;;;;;;6336253;22;20391;-95
2021/04/27 07:32:39;;;;;;;11.63;5.93;;;10.50;65.40;;;;;;6275175;22;20399;-94
2021/04/27 07:35:10;;;;;;;13.85;5.43;;;10.50;65.90;;;;;;6312586;22;20427;-94
2021/04/27 07:41:29;;;;;;;14.75;5.95;;;10.00;66.90;;;;;;6339662;22;20356;-95
2021/04/27 07:43:56;;;;;;;9.15;5.18;;;10.60;67.00;;;;;;6311545;22;20452;-94
2021/04/27 07:46:23;;;;;;;10.95;5.22;;;11.00;64.10;;;;;;6313282;22;20404;-93
2021/04/27 07:48:53;;;;;;;9.32;5.50;;;10.80;65.00;;;;;;6322267;22;20396;-95
2021/04/27 07:51:23;;;;;;;13.00;5.50;;;10.80;66.80;;;;;;6329550;22;20507;-95
2021/04/27 07:53:50;;;;;;;13.68;5.70;;;11.00;68.20;;;;;;6328257;22;20388;-95
2021/04/27 07:56:21;;;;;;;8.40;5.00;;;11.00;66.10;;;;;;6333960;22;20384;-95
2021/04/27 08:29:09;;;;;;;9.15;4.72;;;11.70;59.30;;;;;;6320459;22;20381;-93
2021/04/27 08:31:56;;;;;;;9.95;5.10;;;12.10;58.70;;;;;;6313971;22;20383;-93
2021/04/27 08:34:23;;;;;;;8.20;4.65;;;12.30;54.70;;;;;;6287116;22;20386;-93
2021/04/27 08:36:50;;;;;;;12.20;5.18;;;12.10;58.90;;;;;;6285995;22;20409;-92
2021/04/27 08:43:05;;;;;;;9.50;4.53;;;12.90;57.10;;;;;;6292970;22;20406;-94
2021/04/27 08:45:44;;;;;;;7.53;4.23;;;12.50;54.00;;;;;;6279774;22;20384;-94
2021/04/27 08:48:24;;;;;;;12.27;4.78;;;12.80;56.00;;;;;;6277853;22;20393;-94
2021/04/27 08:50:52;;;;;;;7.57;4.40;;;12.50;55.40;;;;;;6278369;22;20388;-94
2021/04/27 08:53:40;;;;;;;10.60;4.82;;;12.70;55.40;;;;;;6277915;22;20483;-93
2021/04/27 08:56:25;;;;;;;;;;;;;;;;;;;;;
2021/04/27 08:59:14;;;;;;;8.80;4.38;;;13.50;51.10;;;;;;6278975;22;20387;-93
2021/04/27 09:29:37;;;;;;;8.98;4.82;;;12.70;51.20;;;;;;6248470;23;20867;-92
2021/04/27 09:32:05;;;;;;;13.85;4.72;;;12.00;51.50;;;;;;6221432;23;20374;-92
2021/04/27 09:34:37;;;;;;;9.40;5.20;;;11.80;55.50;;;;;;6222841;23;20382;-92
2021/04/27 11:26:35;;;;;;;8.02;4.60;;;13.30;53.20;;;;;;6336378;22;20379;-95
2021/04/27 11:29:31;;;;;;;7.68;4.28;;;13.40;56.10;;;;;;6330013;22;20460;-94
2021/04/27 11:32:19;;;;;;;7.85;4.13;;;13.80;52.00;;;;;;6326041;22;20408;-95
2021/04/27 12:05:38;;;;;;;8.90;4.57;;;14.60;55.10;;;;;;6345406;22;20387;-94
2021/04/27 12:08:15;;;;;;;7.45;4.50;;;14.50;52.10;;;;;;6318297;22;20376;-94
2021/04/27 12:11:15;;;;;;;;;;;;;;;;;;;;;
2021/04/27 12:13:54;;;;;;;8.82;4.57;;;13.80;54.10;;;;;;6351343;22;20422;-96
2021/04/27 12:16:33;;;;;;;8.73;4.72;;;14.20;57.90;;;;;;6326149;22;20392;-96
2021/04/27 12:19:05;;;;;;;10.75;4.50;;;14.30;55.20;;;;;;6318027;22;20383;-95
2021/04/27 12:21:39;;;;;;;8.30;4.60;;;14.00;53.50;;;;;;6315917;22;20459;-95
2021/04/27 12:24:09;;;;;;;9.32;4.55;;;14.30;52.10;;;;;;6315280;22;20429;-96
2021/04/27 12:26:38;;;;;;;10.10;4.88;;;14.40;54.40;;;;;;6315848;22;20387;-95
2021/04/27 12:29:06;;;;;;;9.60;4.65;;;14.20;55.70;;;;;;6317281;22;20384;-96
2021/04/27 12:31:37;;;;;;;8.37;4.60;;;14.30;51.60;;;;;;6316641;22;20854;-96
2021/04/27 12:50:20;;;;;;;8.38;4.63;;;13.80;56.10;;;;;;6311529;22;20378;-92
2021/04/27 12:52:49;;;;;;;7.88;4.55;;;15.70;56.80;;;;;;6299667;22;20407;-94
2021/04/27 12:55:21;;;;;;;8.90;4.47;;;17.00;52.20;;;;;;6308569;22;20430;-95
2021/04/27 12:58:13;;;;;;;9.30;5.05;;;17.90;47.20;;;;;;6233987;23;20387;-95
2021/04/27 13:00:50;;;;;;;7.85;4.80;;;17.70;49.70;;;;;;6218208;23;20483;-94
2021/04/27 13:03:21;;;;;;;8.25;4.47;;;17.80;49.40;;;;;;6219078;23;20427;-95
2021/04/27 13:05:53;;;;;;;9.07;4.80;;;16.30;49.90;;;;;;6219991;23;20415;-94
2021/04/27 13:08:28;;;;;;;7.70;5.20;;;16.00;52.40;;;;;;6219160;23;20391;-93
2021/04/27 13:19:39;;;;;;;10.77;6.18;;;14.30;58.00;;;;;;6284351;22;20426;-94
2021/04/27 13:22:57;;;;;;;10.17;6.10;;;14.40;54.00;;;;;;6204822;23;20390;-94
2021/04/27 13:49:10;;;;;;;11.65;6.22;;;18.50;45.80;;;;;;6332035;22;20384;-96
2021/04/27 13:51:48;;;;;;;7.95;5.38;;;17.80;50.70;;;;;;6326861;22;20798;-96
2021/04/27 13:54:25;;;;;;;8.98;5.70;;;18.40;51.70;;;;;;6351836;22;20458;-96
2021/04/27 13:56:57;;;;;;;8.30;5.57;;;18.60;48.40;;;;;;6306251;22;20463;-96
2021/04/27 14:11:15;;;;;;;7.97;5.20;;;15.20;52.20;;;;;;6229979;23;20864;-95
2021/04/27 14:23:33;;;;;;;10.70;5.25;;;17.90;50.00;;;;;;6279351;22;20754;-94
2021/04/27 14:25:59;;;;;;;25.42;5.90;;;17.50;52.00;;;;;;6279873;22;20475;-96
2021/04/27 14:28:54;;;;;;;8.40;5.55;;;18.00;50.90;;;;;;6279941;22;20391;-95
2021/04/27 14:31:21;;;;;;;12.60;5.72;;;18.30;48.00;;;;;;6203820;23;20407;-95
2021/04/27 14:33:49;;;;;;;13.15;5.35;;;17.80;52.30;;;;;;6197348;23;20393;-95
2021/04/27 14:36:16;;;;;;;10.47;5.43;;;17.30;50.60;;;;;;6196377;23;20445;-95
2021/04/27 14:44:53;;;;;;;10.13;5.72;;;17.70;52.90;;;;;;6281056;22;20356;31
2021/04/27 15:13:04;;;;;;;8.88;5.70;;;19.20;46.70;;;;;;6286691;22;20361;-95
2021/04/27 15:22:32;;;;;;;10.30;5.70;;;16.20;50.70;;;;;;6310199;22;20358;-94
2021/04/27 15:24:59;;;;;;;10.45;6.15;;;15.30;51.80;;;;;;6283735;22;20930;-92
2021/04/27 15:27:26;;;;;;;10.05;6.13;;;14.80;53.20;;;;;;6285201;22;20845;-91
2021/04/27 15:29:58;;;;;;;10.52;6.03;;;14.30;55.60;;;;;;6285403;22;20382;-96
2021/04/27 15:35:47;;;;;;;11.93;6.50;;;15.00;56.70;;;;;;6345117;22;20417;-96
2021/04/27 17:31:36;;;;;;;14.32;7.88;;;10.60;71.80;;;;;;6285633;22;20417;31
